Time;durP1;ratioP1;P1;durP2;ratioP2;P2;SDS_P1;SDS_P2;PMS_P1;PMS_P2;Temp;Humidity;BMP_temperature;BMP_pressure;BME280_temperature;BME280_humidity;BME280_pressure;Samples;Min_cycle;Max_cycle;Signal;HPM_P1;HPM_P2
2020/12/11 00:00:17;;;;;;;4.72;2.30;;;;;;;16.93;38.16;93468.72;5095410;28;20051;-59
2020/12/11 00:02:44;;;;;;;2.40;1.88;;;;;;;16.91;38.63;93470.91;5095712;28;20386;-61
2020/12/11 00:05:11;;;;;;;2.20;1.27;;;;;;;17.18;37.56;93471.84;5078329;28;20529;-64
2020/12/11 00:07:39;;;;;;;3.20;1.55;;;;;;;17.31;36.94;93472.44;5075376;28;20055;-63
2020/12/11 00:10:11;;;;;;;3.63;1.40;;;;;;;16.98;37.66;93471.06;5061122;28;20379;-63
2020/12/11 00:12:38;;;;;;;2.50;1.70;;;;;;;17.57;36.16;93475.19;5095562;28;20060;-65
2020/12/11 00:15:07;;;;;;;2.00;1.40;;;;;;;18.01;35.35;93475.59;5082415;28;20459;-59
2020/12/11 00:17:34;;;;;;;3.85;1.73;;;;;;;17.71;36.01;93480.75;5074571;28;20079;-60
2020/12/11 00:20:03;;;;;;;2.67;1.60;;;;;;;17.46;37.06;93484.81;5106548;28;20051;-54
2020/12/11 00:22:30;;;;;;;2.95;1.70;;;;;;;17.20;37.53;93478.31;5095259;28;20052;-58
2020/12/11 00:24:57;;;;;;;3.13;1.77;;;;;;;17.15;37.76;93475.16;5095521;28;20040;-57
2020/12/11 00:27:24;;;;;;;3.15;1.98;;;;;;;17.86;35.81;93476.47;5095466;28;20051;-80
2020/12/11 00:29:51;;;;;;;3.10;1.90;;;;;;;17.68;36.59;93478.81;5095177;28;20051;-57
2020/12/11 00:32:18;;;;;;;2.88;1.77;;;;;;;17.49;36.63;93473.53;5095252;28;20059;-58
2020/12/11 00:34:45;;;;;;;2.00;1.27;;;;;;;17.26;37.38;93476.91;5095120;28;20443;-57
2020/12/11 00:37:12;;;;;;;1.88;1.20;;;;;;;17.47;36.81;93486.34;5095004;28;20040;-79
2020/12/11 00:39:40;;;;;;;2.20;1.27;;;;;;;17.42;37.09;93489.25;5095212;28;20048;-54
2020/12/11 00:42:07;;;;;;;2.33;1.33;;;;;;;17.54;37.49;93481.94;5095013;28;20052;-57
2020/12/11 00:44:34;;;;;;;3.63;1.27;;;;;;;17.13;37.93;93483.44;5077376;28;20044;-58
2020/12/11 00:47:04;;;;;;;2.85;1.63;;;;;;;17.24;37.56;93484.41;5095328;28;20046;-58
2020/12/11 00:49:32;;;;;;;2.95;1.70;;;;;;;17.35;37.07;93478.56;5107551;28;20048;-59
2020/12/11 00:51:59;;;;;;;2.33;1.70;;;;;;;17.25;37.88;93478.00;5097381;28;20493;-58
2020/12/11 00:54:31;;;;;;;3.22;2.13;;;;;;;17.22;37.70;93481.34;5095025;28;20044;-58
2020/12/11 00:56:59;;;;;;;3.03;1.92;;;;;;;17.29;38.00;93485.25;5094154;28;20039;-80
2020/12/11 00:59:27;;;;;;;4.63;2.33;;;;;;;17.12;38.21;93487.19;5095123;28;20047;-60
2020/12/11 01:01:54;;;;;;;3.63;2.10;;;;;;;17.32;38.16;93484.53;5093744;28;20459;-80
2020/12/11 01:04:21;;;;;;;3.13;2.30;;;;;;;17.40;38.35;93488.84;5094898;28;20046;-60
2020/12/11 01:06:48;;;;;;;5.25;2.67;;;;;;;17.47;38.02;93481.81;5094855;28;20477;-56
2020/12/11 01:09:15;;;;;;;4.07;2.85;;;;;;;17.32;38.26;93492.47;5095168;28;20087;-61
2020/12/11 01:11:42;;;;;;;4.88;3.08;;;;;;;17.17;38.28;93478.97;5094974;28;20059;-79
2020/12/11 01:14:09;;;;;;;4.75;3.20;;;;;;;17.32;38.13;93487.19;5074826;28;20359;-61
2020/12/11 01:16:36;;;;;;;4.00;2.50;;;;;;;17.12;39.53;93484.53;5074959;28;20040;-60
2020/12/11 01:19:03;;;;;;;5.30;2.67;;;;;;;17.16;39.37;93490.66;5092260;28;20058;-65
2020/12/11 01:21:30;;;;;;;5.00;3.28;;;;;;;17.02;39.32;93482.47;5115439;28;20054;-59
2020/12/11 01:23:57;;;;;;;5.93;3.05;;;;;;;17.02;38.96;93482.47;5096664;28;20063;-60
2020/12/11 01:26:24;;;;;;;6.03;3.63;;;;;;;17.01;39.19;93483.56;5080396;28;20044;-63
2020/12/11 01:28:51;;;;;;;3.97;2.65;;;;;;;17.21;39.13;93485.13;5074697;28;20048;-59
2020/12/11 01:31:19;;;;;;;4.18;2.60;;;;;;;16.84;39.86;93481.34;5081383;28;20047;-59
2020/12/11 01:33:49;;;;;;;6.85;3.95;;;;;;;17.14;39.19;93481.56;5094590;28;20048;-57
2020/12/11 01:36:26;;;;;;;8.05;5.78;;;;;;;17.02;39.51;93484.34;5094256;28;20481;-64
2020/12/11 01:38:53;;;;;;;12.10;7.32;;;;;;;16.78;39.74;93478.22;5093449;28;20051;-61
2020/12/11 01:41:21;;;;;;;10.38;6.72;;;;;;;16.91;39.84;93476.19;5094659;28;20055;-60
2020/12/11 01:43:49;;;;;;;9.25;6.22;;;;;;;16.93;39.67;93480.03;5094804;28;20052;-60
2020/12/11 01:46:17;;;;;;;9.38;5.57;;;;;;;16.79;40.14;93476.34;5094635;28;20044;-67
2020/12/11 01:48:45;;;;;;;8.80;6.10;;;;;;;16.90;39.84;93479.94;5102467;28;20473;-59
2020/12/11 01:51:13;;;;;;;8.30;5.85;;;;;;;16.95;39.79;93483.09;5118479;28;20054;-64
2020/12/11 01:53:43;;;;;;;6.57;5.20;;;;;;;16.83;39.92;93470.00;5118629;28;20052;-58
2020/12/11 01:56:18;;;;;;;15.25;10.25;;;;;;;16.82;40.02;93483.56;5118426;28;20047;-65
2020/12/11 01:58:47;;;;;;;14.57;9.60;;;;;;;16.91;39.96;93492.81;5109259;28;20048;-63
2020/12/11 02:01:16;;;;;;;14.48;10.90;;;;;;;17.00;39.83;93484.69;5080339;28;20457;-55
2020/12/11 02:03:44;;;;;;;19.45;13.48;;;;;;;16.76;39.99;93487.59;5097011;28;20052;-55
2020/12/11 02:06:11;;;;;;;18.95;13.10;;;;;;;16.66;40.31;93486.25;5097848;28;20058;-54
2020/12/11 02:08:39;;;;;;;17.40;13.48;;;;;;;16.72;40.20;93473.56;5080014;28;20055;-55
2020/12/11 02:11:19;;;;;;;16.92;13.30;;;;;;;16.76;40.00;93477.78;5097592;28;20044;-81
2020/12/11 02:13:47;;;;;;;15.48;12.52;;;;;;;16.75;40.01;93478.13;5097959;28;20060;-60
2020/12/11 02:16:18;;;;;;;16.40;12.02;;;;;;;16.70;40.10;93491.59;5097745;28;20048;-80
2020/12/11 02:18:45;;;;;;;15.00;11.43;;;;;;;16.67;39.97;93484.38;5103643;28;20050;-59
2020/12/11 02:21:12;;;;;;;17.20;11.43;;;;;;;16.63;40.47;93479.75;5118125;28;20050;-74
2020/12/11 02:23:41;;;;;;;14.75;11.15;;;;;;;16.58;40.32;93480.00;5118114;28;20039;-57
2020/12/11 02:26:08;;;;;;;14.95;11.18;;;;;;;16.63;40.35;93478.97;5118269;28;20051;-80
2020/12/11 02:28:36;;;;;;;13.52;10.27;;;;;;;16.69;40.27;93485.56;5110963;28;20048;-67
2020/12/11 02:31:04;;;;;;;14.88;11.23;;;;;;;16.90;39.79;93486.00;5097546;28;20047;-76
2020/12/11 02:33:31;;;;;;;15.70;12.60;;;;;;;16.60;40.31;93488.34;5097443;28;20051;-63
2020/12/11 02:35:58;;;;;;;17.05;12.85;;;;;;;17.05;39.69;93478.38;5097386;28;20052;-58
2020/12/11 02:38:25;;;;;;;17.35;11.73;;;;;;;16.62;40.54;93483.50;5097050;28;20114;-80
2020/12/11 02:40:55;;;;;;;15.43;12.05;;;;;;;16.64;40.50;93478.63;5079509;28;20048;-80
2020/12/11 02:43:23;;;;;;;17.75;13.35;;;;;;;16.45;40.95;93475.22;5096888;28;20470;-59
2020/12/11 02:45:52;;;;;;;18.05;12.75;;;;;;;16.77;40.39;93476.69;5097233;28;20056;-56
2020/12/11 02:48:19;;;;;;;16.63;13.23;;;;;;;16.86;40.02;93479.13;5099350;28;20336;-57
2020/12/11 02:50:47;;;;;;;16.75;12.45;;;;;;;16.65;40.27;93474.13;5117534;28;20492;-66
2020/12/11 02:53:14;;;;;;;16.73;12.90;;;;;;;16.88;39.85;93477.66;5117490;28;20047;-80
2020/12/11 02:55:41;;;;;;;16.95;13.48;;;;;;;16.28;41.04;93471.06;5117379;28;20051;-60
2020/12/11 02:58:09;;;;;;;18.13;13.82;;;;;;;15.11;44.12;93479.44;5089252;28;20055;-73
2020/12/11 03:00:36;;;;;;;19.55;13.65;;;;;;;15.88;42.43;93479.19;5080401;28;20049;-59
2020/12/11 03:03:03;;;;;;;16.67;12.52;;;;;;;16.21;41.36;93481.47;5075914;28;20045;-63
2020/12/11 03:05:30;;;;;;;19.92;14.00;;;;;;;16.15;41.39;93488.09;5076501;28;20367;-58
2020/12/11 03:07:57;;;;;;;17.13;12.90;;;;;;;16.54;40.50;93479.19;5076563;28;20063;-74
2020/12/11 03:10:24;;;;;;;17.35;14.02;;;;;;;16.54;40.59;93478.41;5078264;28;20052;-80
2020/12/11 03:12:51;;;;;;;20.60;13.77;;;;;;;16.51;40.72;93485.16;5076345;28;20040;-60
2020/12/11 03:15:18;;;;;;;17.60;13.88;;;;;;;16.71;40.08;93487.88;5076361;28;20052;-60
2020/12/11 03:17:45;;;;;;;14.82;12.38;;;;;;;16.52;40.46;93486.69;5076466;28;20044;-57
2020/12/11 03:20:22;;;;;;;17.70;13.43;;;;;;;16.68;40.11;93486.69;5094400;28;20343;-58
2020/12/11 03:22:53;;;;;;;14.45;12.48;;;;;;;16.77;39.86;93481.97;5096451;28;20055;-60
2020/12/11 03:25:20;;;;;;;14.45;11.95;;;;;;;16.70;40.40;93486.34;5096555;28;20052;-55
2020/12/11 03:27:47;;;;;;;14.20;11.85;;;;;;;16.61;40.11;93491.75;5096445;28;20044;-62
2020/12/11 03:30:15;;;;;;;15.90;12.52;;;;;;;16.35;40.80;93492.31;5096138;28;20439;-57
2020/12/11 03:32:42;;;;;;;16.92;13.13;;;;;;;16.69;40.25;93500.63;5096273;28;20044;-55
2020/12/11 03:35:09;;;;;;;16.02;13.00;;;;;;;16.33;40.61;93511.13;5096139;28;20048;-59
2020/12/11 03:37:36;;;;;;;14.82;12.60;;;;;;;16.73;40.10;93509.38;5096399;28;20056;-79
2020/12/11 03:40:04;;;;;;;15.48;12.85;;;;;;;16.63;40.17;93519.31;5095917;28;20043;-75
2020/12/11 03:42:31;;;;;;;14.60;13.02;;;;;;;16.59;40.36;93518.47;5096101;28;20510;-79
2020/12/11 03:44:59;;;;;;;17.33;13.02;;;;;;;16.93;39.91;93517.00;5096002;28;20044;-62
2020/12/11 03:47:30;;;;;;;14.43;12.32;;;;;;;16.77;40.11;93520.78;5096169;28;20075;-57
2020/12/11 03:49:58;;;;;;;14.90;12.52;;;;;;;16.76;39.87;93529.81;5096299;28;20359;-72
2020/12/11 03:52:31;;;;;;;16.27;12.95;;;;;;;16.85;40.05;93527.72;5095790;28;20047;-79
2020/12/11 03:54:58;;;;;;;16.15;13.50;;;;;;;16.81;39.91;93525.03;5095796;28;20070;-60
2020/12/11 03:57:25;;;;;;;17.75;15.05;;;;;;;16.73;40.03;93536.53;5095926;28;20347;-60
2020/12/11 03:59:52;;;;;;;20.65;17.00;;;;;;;16.83;40.08;93532.59;5096064;28;20056;-58
2020/12/11 04:02:19;;;;;;;23.67;17.23;;;;;;;16.70;40.33;93544.38;5095957;28;20043;-64
2020/12/11 04:04:46;;;;;;;20.27;15.75;;;;;;;16.59;40.62;93536.19;5096020;28;20048;-55
2020/12/11 04:07:13;;;;;;;19.80;15.48;;;;;;;16.93;39.91;93547.91;5096044;28;20055;-56
2020/12/11 04:09:41;;;;;;;21.13;15.48;;;;;;;16.98;40.05;93550.28;5095664;28;20054;-55
2020/12/11 04:12:08;;;;;;;20.73;14.75;;;;;;;17.00;39.67;93550.69;5095206;28;20047;-61
2020/12/11 04:14:35;;;;;;;18.92;15.38;;;;;;;16.75;40.09;93554.69;5095483;28;20051;-64
2020/12/11 04:17:02;;;;;;;18.63;15.07;;;;;;;16.65;40.58;93558.56;5095573;28;20505;-59
2020/12/11 04:19:29;;;;;;;17.40;14.40;;;;;;;16.60;40.76;93550.91;5096921;28;20043;-59
2020/12/11 04:21:56;;;;;;;17.58;13.68;;;;;;;16.60;40.82;93558.81;5095640;28;20048;-57
2020/12/11 04:24:24;;;;;;;14.05;11.05;;;;;;;16.80;39.67;93549.13;5095335;28;20051;-66
2020/12/11 04:26:51;;;;;;;13.20;9.30;;;;;;;16.80;39.41;93554.41;5095307;28;20043;-61
2020/12/11 04:29:18;;;;;;;11.10;8.07;;;;;;;16.90;39.28;93556.50;5095227;28;20048;-57
2020/12/11 04:31:56;;;;;;;11.73;7.65;;;;;;;16.75;39.25;93566.00;5095522;28;20047;-55
2020/12/11 04:34:23;;;;;;;9.60;6.70;;;;;;;16.79;39.36;93569.47;5095054;28;20058;-56
2020/12/11 04:36:52;;;;;;;12.35;7.93;;;;;;;16.84;39.15;93571.84;5095299;28;20387;-57
2020/12/11 04:39:20;;;;;;;12.38;8.27;;;;;;;16.94;39.35;93570.56;5095060;28;20339;-56
2020/12/11 04:41:47;;;;;;;9.68;7.00;;;;;;;16.88;39.43;93566.63;5095389;28;20062;-56
2020/12/11 04:44:14;;;;;;;8.32;6.60;;;;;;;16.82;39.34;93568.03;5077235;28;20043;-56
2020/12/11 04:46:41;;;;;;;10.30;6.88;;;;;;;17.04;38.98;93567.38;5095566;28;20044;-54
2020/12/11 04:49:09;;;;;;;10.02;6.90;;;;;;;16.72;39.57;93571.19;5097307;28;20052;-54
2020/12/11 04:51:36;;;;;;;10.25;7.03;;;;;;;16.62;39.70;93565.28;5094221;28;20047;-57
2020/12/11 04:54:04;;;;;;;10.35;7.57;;;;;;;16.58;39.89;93564.44;5077194;28;20055;-57
2020/12/11 04:56:32;;;;;;;10.15;7.82;;;;;;;16.84;39.15;93549.97;5095152;28;20058;-59
2020/12/11 04:58:59;;;;;;;10.38;6.97;;;;;;;16.84;39.21;93555.25;5094840;28;20048;-57
2020/12/11 05:01:32;;;;;;;9.00;7.13;;;;;;;16.95;38.90;93545.69;5095239;28;20055;-57
2020/12/11 05:03:59;;;;;;;;;;;;;;;17.04;38.76;93551.53;5095395;28;20047;-57
2020/12/11 05:06:26;;;;;;;10.43;8.35;;;;;;;16.95;38.87;93551.75;5094368;28;19923;-74
2020/12/11 05:09:14;;;;;;;11.88;7.97;;;;;;;17.14;38.67;93553.63;5077046;28;20054;-80
2020/12/11 05:11:42;;;;;;;9.75;7.28;;;;;;;16.91;39.08;93556.19;5095025;28;20048;-59
2020/12/11 05:14:27;;;;;;;9.93;7.15;;;;;;;16.79;39.14;93543.09;5094841;28;20051;-59
2020/12/11 05:16:55;;;;;;;10.30;7.70;;;;;;;16.74;39.22;93555.78;5095013;28;20047;-57
2020/12/11 05:19:22;;;;;;;10.60;7.22;;;;;;;16.67;39.27;93556.41;5105986;28;20052;-53
2020/12/11 05:21:50;;;;;;;9.75;7.32;;;;;;;16.77;39.63;93565.66;5115393;28;20060;-54
2020/12/11 05:24:17;;;;;;;13.25;7.30;;;;;;;16.83;39.21;93562.41;5117983;28;20051;-62
2020/12/11 05:26:44;;;;;;;12.93;8.77;;;;;;;16.86;39.15;93568.84;5119248;28;20052;-57
2020/12/11 05:29:11;;;;;;;11.30;8.50;;;;;;;16.76;39.36;93575.44;5104943;28;20051;-59
2020/12/11 05:31:38;;;;;;;14.18;9.30;;;;;;;16.59;39.45;93565.22;5098747;28;20051;-54
2020/12/11 05:34:05;;;;;;;13.07;9.38;;;;;;;16.97;38.82;93566.47;5098478;28;20370;-58
2020/12/11 05:36:45;;;;;;;13.75;10.02;;;;;;;16.81;39.04;93577.03;5098437;28;20048;-60
2020/12/11 05:39:12;;;;;;;12.57;9.40;;;;;;;16.88;38.89;93582.47;5098150;28;20043;-58
2020/12/11 05:41:39;;;;;;;13.45;8.90;;;;;;;16.96;38.57;93584.19;5098540;28;20332;-57
2020/12/11 05:44:27;;;;;;;11.55;8.60;;;;;;;17.17;38.09;93589.91;5097925;28;20048;-57
2020/12/11 05:46:55;;;;;;;12.82;9.38;;;;;;;17.11;38.16;93586.00;5097871;28;20055;-53
2020/12/11 05:49:29;;;;;;;11.77;9.98;;;;;;;16.96;38.47;93600.03;5109182;28;20043;-62
2020/12/11 05:52:11;;;;;;;15.43;11.65;;;;;;;16.95;38.57;93599.25;5118698;28;20048;-60
2020/12/11 05:54:49;;;;;;;18.73;11.07;;;;;;;16.85;38.75;93604.28;5118556;28;20048;-57
2020/12/11 05:57:17;;;;;;;12.52;11.02;;;;;;;16.69;39.00;93599.03;5118796;28;20048;-58
2020/12/11 05:59:44;;;;;;;13.88;10.88;;;;;;;16.93;38.38;93611.28;5100813;28;20059;-57
2020/12/11 06:02:12;;;;;;;13.65;10.73;;;;;;;16.69;39.41;93627.31;5098131;28;20060;-76
2020/12/11 06:04:39;;;;;;;14.25;11.32;;;;;;;16.77;39.11;93624.47;5080089;28;20051;-59
2020/12/11 06:07:14;;;;;;;18.77;12.95;;;;;;;16.60;39.39;93622.91;5098144;28;20052;-81
2020/12/11 06:09:45;;;;;;;16.38;12.77;;;;;;;17.01;39.09;93626.16;5097650;28;20044;-60
2020/12/11 06:12:12;;;;;;;13.75;11.27;;;;;;;16.99;38.90;93633.66;5098049;28;20439;-78
2020/12/11 06:15:02;;;;;;;14.25;11.27;;;;;;;16.91;39.90;93624.81;5097710;28;20358;-55
2020/12/11 06:17:33;;;;;;;15.23;12.38;;;;;;;17.55;39.35;93628.03;5076496;28;20052;-59
2020/12/11 06:20:06;;;;;;;15.60;11.85;;;;;;;17.35;38.46;93627.25;5112955;28;20050;-62
2020/12/11 06:22:35;;;;;;;14.38;11.65;;;;;;;17.46;38.41;93627.50;5117929;28;20450;-71
2020/12/11 06:25:27;;;;;;;15.43;11.73;;;;;;;17.96;37.72;93617.91;5118171;28;20044;-58
2020/12/11 06:27:56;;;;;;;;;;;;;;;17.95;38.44;93622.41;5079057;28;20056;-54
2020/12/11 06:30:31;;;;;;;16.48;12.02;;;;;;;17.70;37.93;93627.25;5097555;28;19915;-56
2020/12/11 06:32:59;;;;;;;13.80;11.30;;;;;;;17.84;38.03;93627.50;5097563;28;20044;-63
2020/12/11 06:35:27;;;;;;;16.83;13.00;;;;;;;17.96;37.80;93628.50;5096842;28;20059;-66
2020/12/11 06:37:54;;;;;;;17.30;13.63;;;;;;;18.09;37.48;93621.94;5097276;28;20056;-61
2020/12/11 06:40:50;;;;;;;18.27;13.68;;;;;;;17.97;37.58;93625.50;5097322;28;20040;-66
2020/12/11 06:43:37;;;;;;;17.35;12.32;;;;;;;17.90;37.42;93629.88;5096895;28;20043;-62
2020/12/11 06:46:23;;;;;;;14.07;11.25;;;;;;;17.84;37.58;93627.50;5096858;28;20051;-57
2020/12/11 06:49:22;;;;;;;11.52;10.32;;;;;;;17.33;38.02;93623.44;5103629;28;20074;-55
2020/12/11 06:51:49;;;;;;;14.13;10.48;;;;;;;17.42;38.05;93624.75;5117626;28;20043;-58
2020/12/11 06:54:22;;;;;;;10.48;9.38;;;;;;;17.50;38.39;93630.97;5117275;28;20047;-63
2020/12/11 06:56:52;;;;;;;11.85;10.43;;;;;;;17.45;38.30;93625.97;5117223;28;20454;-56
2020/12/11 06:59:22;;;;;;;14.13;10.40;;;;;;;15.49;42.41;93625.66;5093201;28;20040;-59
2020/12/11 07:02:17;;;;;;;14.25;10.20;;;;;;;15.32;43.63;93631.97;5088289;28;20048;-61
2020/12/11 07:04:44;;;;;;;12.60;9.55;;;;;;;15.15;43.62;93638.25;5078828;28;20040;-63
2020/12/11 07:07:12;;;;;;;13.80;10.32;;;;;;;16.04;41.48;93649.41;5076619;28;20052;-59
2020/12/11 07:09:43;;;;;;;13.77;9.50;;;;;;;16.29;40.24;93644.00;5091475;28;20044;-62
2020/12/11 07:12:10;;;;;;;11.15;9.45;;;;;;;14.95;43.70;93649.69;5096745;28;20355;-60
2020/12/11 07:14:37;;;;;;;14.85;9.48;;;;;;;15.93;41.80;93640.47;5096536;28;20059;-56
2020/12/11 07:17:05;;;;;;;11.60;9.63;;;;;;;16.57;39.44;93647.34;5089284;28;20044;-64
2020/12/11 07:19:36;;;;;;;14.55;10.15;;;;;;;16.70;39.30;93639.41;5096585;28;20450;-58
2020/12/11 07:22:06;;;;;;;12.00;10.00;;;;;;;17.23;38.83;93646.66;5076344;28;20078;-58
2020/12/11 07:24:34;;;;;;;12.25;10.27;;;;;;;17.37;38.10;93643.53;5075983;28;20063;-62
2020/12/11 07:27:05;;;;;;;15.32;10.52;;;;;;;17.44;38.02;93645.56;5075708;28;20047;-59
2020/12/11 07:29:33;;;;;;;14.63;10.38;;;;;;;17.47;37.84;93639.59;5088595;28;20039;-63
2020/12/11 07:32:02;;;;;;;13.20;9.73;;;;;;;17.74;37.85;93646.59;5093561;28;20047;-55
2020/12/11 07:34:29;;;;;;;12.48;10.05;;;;;;;18.31;36.66;93645.00;5094698;28;20063;-61
2020/12/11 07:36:58;;;;;;;15.60;10.20;;;;;;;18.23;36.37;93647.88;5078008;28;20044;-64
2020/12/11 07:39:27;;;;;;;13.35;10.32;;;;;;;18.46;36.66;93640.69;5093780;28;20040;-63
2020/12/11 07:41:56;;;;;;;14.65;11.30;;;;;;;18.66;36.52;93638.78;5095391;28;20055;-57
2020/12/11 07:44:28;;;;;;;14.85;11.43;;;;;;;18.81;36.80;93645.09;5097878;28;20048;-59
2020/12/11 07:46:58;;;;;;;14.27;11.00;;;;;;;18.77;36.16;93650.34;5092150;28;20442;-54
2020/12/11 07:49:54;;;;;;;13.25;10.30;;;;;;;18.93;35.68;93643.00;5092723;28;20043;-60
2020/12/11 07:52:27;;;;;;;15.00;9.77;;;;;;;18.57;35.64;93646.19;5076034;28;20385;-62
2020/12/11 07:54:55;;;;;;;13.13;9.70;;;;;;;18.43;36.52;93647.47;5097468;28;20047;-81
2020/12/11 07:57:25;;;;;;;18.95;14.15;;;;;;;18.29;36.43;93651.75;5108716;28;20074;-58
2020/12/11 08:00:00;;;;;;;23.58;18.25;;;;;;;18.49;36.75;93656.66;5090364;28;20040;-65
2020/12/11 08:02:28;;;;;;;33.17;24.33;;;;;;;18.63;36.75;93650.09;5094896;28;20091;-63
2020/12/11 08:04:55;;;;;;;32.05;25.13;;;;;;;19.02;36.21;93651.47;5077811;28;20123;-59
2020/12/11 08:07:29;;;;;;;38.75;27.38;;;;;;;18.83;36.65;93654.22;5079242;28;20052;-62
2020/12/11 08:10:11;;;;;;;36.92;26.60;;;;;;;19.53;36.32;93669.66;5105461;28;20043;-79
2020/12/11 08:12:39;;;;;;;35.97;27.63;;;;;;;19.63;35.38;93671.66;5095681;28;20080;-81
2020/12/11 08:15:07;;;;;;;20.63;16.02;;;;;;;19.26;35.91;93670.75;5075294;28;20052;-81
2020/12/11 08:17:34;;;;;;;14.57;11.90;;;;;;;19.31;35.23;93668.56;5058011;28;20049;-64
2020/12/11 08:20:06;;;;;;;20.52;15.38;;;;;;;19.19;35.37;93662.69;5093488;28;20048;-64
2020/12/11 08:22:38;;;;;;;15.70;11.77;;;;;;;18.66;36.45;93660.72;5077750;28;20059;-74
2020/12/11 08:25:37;;;;;;;14.88;12.23;;;;;;;18.23;37.00;93671.69;5055071;28;20283;-76
2020/12/11 08:28:07;;;;;;;11.18;8.77;;;;;;;18.22;36.28;93663.00;5011686;28;20040;-59
2020/12/11 08:30:34;;;;;;;11.85;8.70;;;;;;;18.21;36.62;93666.72;5056144;28;20048;-55
2020/12/11 08:33:11;;;;;;;12.73;8.32;;;;;;;17.84;36.76;93664.53;5055148;28;20052;-63
2020/12/11 08:35:39;;;;;;;13.05;9.82;;;;;;;18.15;37.15;93678.72;5054943;28;20053;-58
2020/12/11 08:38:11;;;;;;;23.55;19.13;;;;;;;18.33;37.18;93669.22;5055112;28;20044;-60
2020/12/11 08:40:49;;;;;;;22.40;18.25;;;;;;;18.46;36.41;93675.09;5076799;28;20048;-54
2020/12/11 08:51:07;;;;;;;21.88;19.48;;;;;;;18.63;36.64;93668.63;5095236;28;20458;-60
2020/12/11 08:53:47;;;;;;;25.75;19.95;;;;;;;18.78;36.28;93657.16;5095142;28;20051;-62
2020/12/11 08:56:14;;;;;;;14.55;12.35;;;;;;;19.04;35.97;93659.84;5093932;28;20492;-56
2020/12/11 08:58:41;;;;;;;21.52;16.40;;;;;;;19.66;35.82;93668.28;5098994;28;20055;-60
2020/12/11 09:01:08;;;;;;;23.27;20.52;;;;;;;19.73;35.69;93653.59;5070020;28;20047;-78
2020/12/11 09:03:35;;;;;;;25.95;22.70;;;;;;;19.95;34.96;93658.03;5059064;28;20041;-80
2020/12/11 09:06:02;;;;;;;24.15;19.17;;;;;;;19.63;34.78;93647.78;5058897;28;20057;-77
2020/12/11 09:08:29;;;;;;;15.18;13.23;;;;;;;20.11;34.08;93650.63;5059664;28;20059;-63
2020/12/11 09:10:56;;;;;;;15.20;11.45;;;;;;;19.95;34.59;93653.47;5078955;28;20044;-55
2020/12/11 09:13:24;;;;;;;15.10;11.98;;;;;;;20.07;34.38;93655.16;5060216;28;20371;-55
2020/12/11 09:15:51;;;;;;;11.10;9.77;;;;;;;20.15;34.25;93646.13;5058582;28;20059;-55
2020/12/11 09:18:18;;;;;;;12.55;10.38;;;;;;;20.29;33.07;93642.84;5063317;28;20052;-56
2020/12/11 09:20:45;;;;;;;17.85;14.75;;;;;;;20.47;33.33;93640.38;5079108;28;20044;-61
2020/12/11 09:23:12;;;;;;;17.85;14.60;;;;;;;20.28;33.99;93649.28;5084031;28;20051;-59
2020/12/11 09:25:39;;;;;;;22.70;19.65;;;;;;;20.25;33.15;93639.38;5098553;28;20048;-62
2020/12/11 09:28:14;;;;;;;22.30;18.40;;;;;;;20.36;32.47;93628.91;5098960;28;20040;-81
2020/12/11 09:30:42;;;;;;;22.95;17.83;;;;;;;20.99;32.65;93633.22;5094270;28;20059;-65
2020/12/11 09:33:16;;;;;;;15.35;11.80;;;;;;;20.62;32.76;93624.22;5078326;28;20060;-59
2020/12/11 09:35:43;;;;;;;13.75;12.02;;;;;;;20.91;32.76;93625.22;5078123;28;20045;-64
2020/12/11 09:38:11;;;;;;;16.88;13.45;;;;;;;20.47;32.38;93632.44;5078560;28;20432;-59
2020/12/11 09:41:15;;;;;;;17.45;14.77;;;;;;;20.35;32.66;93628.13;5096190;28;20051;-65
2020/12/11 09:46:21;;;;;;;18.55;16.05;;;;;;;19.88;33.60;93626.88;5095019;28;20040;-54
2020/12/11 09:48:59;;;;;;;19.67;17.08;;;;;;;19.83;33.58;93631.75;5090690;28;20044;-62
2020/12/11 09:54:13;;;;;;;19.73;16.40;;;;;;;19.67;34.27;93621.31;5118481;28;20039;-57
2020/12/11 09:56:40;;;;;;;20.23;18.13;;;;;;;19.40;34.22;93621.34;5118667;28;20050;-57
2020/12/11 10:01:55;;;;;;;19.65;16.33;;;;;;;19.28;34.45;93615.50;5118499;28;20047;-62
2020/12/11 10:04:22;;;;;;;18.50;15.57;;;;;;;19.29;33.91;93617.81;5118190;28;20035;-54
2020/12/11 10:06:49;;;;;;;19.10;15.63;;;;;;;19.03;34.37;93610.63;5118509;28;20047;-57
2020/12/11 10:09:16;;;;;;;18.90;15.60;;;;;;;19.66;33.91;93614.50;5117437;28;20051;-80
2020/12/11 10:11:43;;;;;;;18.95;15.30;;;;;;;19.55;34.09;93603.00;5119012;28;20066;-75
2020/12/11 10:16:41;;;;;;;17.83;15.93;;;;;;;19.35;34.35;93595.16;5118442;28;20050;-59
2020/12/11 10:19:08;;;;;;;20.58;15.95;;;;;;;19.24;34.27;93604.06;5118012;28;20434;-64
2020/12/11 10:21:35;;;;;;;19.42;16.80;;;;;;;19.70;33.91;93600.16;5118508;28;20055;-65
2020/12/11 10:24:02;;;;;;;18.05;15.95;;;;;;;19.93;33.29;93605.34;5118052;28;20051;-54
2020/12/11 10:26:29;;;;;;;19.67;17.10;;;;;;;20.21;32.92;93596.91;5112873;28;20056;-64
2020/12/11 10:28:56;;;;;;;19.75;17.35;;;;;;;20.38;33.42;93602.75;5099561;28;20355;-80
2020/12/11 10:31:29;;;;;;;23.63;18.92;;;;;;;20.35;32.32;93590.97;5118026;28;20051;-63
2020/12/11 10:33:57;;;;;;;25.45;20.08;;;;;;;21.03;30.46;93586.94;5117714;28;20054;-64
2020/12/11 10:36:31;;;;;;;21.73;19.23;;;;;;;21.04;30.29;93587.72;5087248;28;20374;-80
2020/12/11 10:38:59;;;;;;;22.40;20.00;;;;;;;20.59;31.41;93585.13;5097310;28;20050;-58
2020/12/11 10:41:26;;;;;;;23.60;20.55;;;;;;;20.44;31.62;93572.88;5097547;28;20048;-62
2020/12/11 10:43:54;;;;;;;22.58;20.08;;;;;;;20.41;32.11;93572.84;5097302;28;20039;-80
2020/12/11 10:46:21;;;;;;;22.90;19.80;;;;;;;20.93;31.08;93569.06;5097302;28;20039;-58
2020/12/11 10:48:48;;;;;;;24.42;20.73;;;;;;;20.39;31.81;93570.53;5103653;28;20457;-80
2020/12/11 10:51:16;;;;;;;23.48;21.05;;;;;;;19.87;32.77;93566.25;5117683;28;20047;-80
2020/12/11 10:53:44;;;;;;;24.63;20.13;;;;;;;19.97;32.38;93562.94;5077009;28;20056;-80
2020/12/11 10:56:13;;;;;;;26.40;20.65;;;;;;;19.77;33.19;93561.56;5076721;28;20048;-61
2020/12/11 10:58:41;;;;;;;25.17;20.40;;;;;;;19.99;33.24;93563.31;5085444;28;20048;-57
2020/12/11 11:01:10;;;;;;;25.52;21.02;;;;;;;20.09;32.52;93551.31;5117311;28;20047;-56
2020/12/11 11:03:38;;;;;;;21.48;19.17;;;;;;;20.12;32.91;93546.03;5117264;28;20055;-66
2020/12/11 11:06:32;;;;;;;23.25;20.67;;;;;;;20.12;33.07;93550.56;5117352;28;20047;-59
2020/12/11 11:27:40;;;;;;;24.88;21.88;;;;;;;20.32;32.91;93533.31;5096504;28;20477;-63
2020/12/11 11:30:07;;;;;;;24.38;21.80;;;;;;;20.03;32.66;93532.28;5058591;28;20332;-61
2020/12/11 11:32:35;;;;;;;24.70;21.98;;;;;;;20.22;32.45;93524.13;5075029;28;20059;-56
2020/12/11 11:35:05;;;;;;;23.85;20.35;;;;;;;20.14;32.29;93517.25;5075743;28;20386;-61
2020/12/11 11:37:32;;;;;;;30.20;23.00;;;;;;;19.95;32.59;93514.78;5076022;28;20052;-61
2020/12/11 11:39:59;;;;;;;27.13;23.85;;;;;;;19.85;32.59;93518.13;5076075;28;20052;-59
2020/12/11 11:42:26;;;;;;;25.27;21.98;;;;;;;19.70;32.54;93510.00;5075707;28;20432;-56
2020/12/11 11:45:04;;;;;;;26.25;22.75;;;;;;;19.80;32.67;93518.44;5075828;28;20047;-53
2020/12/11 11:47:31;;;;;;;25.10;21.38;;;;;;;19.98;32.11;93506.09;5075899;28;20044;-58
2020/12/11 11:52:45;;;;;;;24.25;21.23;;;;;;;20.09;32.22;93512.28;5095299;28;20063;-59
2020/12/11 11:55:13;;;;;;;25.63;22.42;;;;;;;20.06;31.92;93526.28;5095853;28;20056;-58
2020/12/11 11:57:42;;;;;;;29.42;22.67;;;;;;;19.98;31.95;93519.34;5095447;28;20481;-56
2020/12/11 12:00:10;;;;;;;24.88;22.27;;;;;;;20.03;32.05;93508.41;5095887;28;20048;-61
2020/12/11 12:02:37;;;;;;;25.58;22.88;;;;;;;19.98;32.63;93508.75;5095649;28;20114;-57
2020/12/11 12:05:08;;;;;;;26.13;22.67;;;;;;;19.92;32.66;93500.38;5095669;28;20044;-55
2020/12/11 12:07:35;;;;;;;27.05;22.63;;;;;;;20.24;32.67;93494.56;5095740;28;20056;-59
2020/12/11 12:10:04;;;;;;;26.25;23.45;;;;;;;20.19;32.85;93503.63;5095736;28;20386;-54
2020/12/11 12:12:37;;;;;;;28.08;23.95;;;;;;;20.28;32.64;93501.41;5095433;28;20054;-57